createdAt,value
2023-02-02T00:00:55.395Z,65.63
2023-02-02T00:03:44.175Z,65.82
2023-02-02T00:06:35.876Z,65.96
2023-02-02T00:09:28.034Z,65.96
2023-02-02T00:12:17.533Z,66.01
2023-02-02T00:15:07.458Z,66.13
2023-02-02T00:17:56.128Z,66.25
2023-02-02T00:20:50.513Z,66.23
2023-02-02T00:23:40.529Z,66.22
2023-02-02T00:26:30.333Z,66.38
2023-02-02T00:29:23.109Z,66.51
2023-02-02T00:32:12.180Z,66.53
2023-02-02T00:35:00.804Z,66.53
2023-02-02T00:37:51.090Z,66.55
2023-02-02T00:40:41.574Z,66.66
2023-02-02T00:43:30.189Z,66.69
2023-02-02T00:46:19.379Z,66.67
2023-02-02T00:49:08.508Z,66.88
2023-02-02T00:51:59.545Z,66.91
2023-02-02T00:54:48.205Z,66.94
2023-02-02T00:57:39.147Z,66.96
2023-02-02T01:00:28.564Z,66.85
2023-02-02T01:03:18.217Z,66.98
2023-02-02T01:06:07.650Z,67.10
2023-02-02T01:08:56.375Z,67.14
2023-02-02T01:11:44.980Z,67.20
2023-02-02T01:14:36.634Z,67.19
2023-02-02T01:17:25.425Z,67.16
2023-02-02T01:20:18.403Z,67.34
2023-02-02T01:23:08.046Z,67.47
2023-02-02T01:25:58.040Z,67.45
2023-02-02T01:28:47.454Z,67.58
2023-02-02T01:31:37.820Z,67.65
2023-02-02T01:34:27.367Z,67.83
2023-02-02T01:37:16.688Z,67.85
2023-02-02T01:40:06.488Z,68.08
2023-02-02T01:42:56.035Z,68.25
2023-02-02T01:45:45.290Z,68.44
2023-02-02T01:48:37.013Z,68.71
2023-02-02T01:51:30.479Z,69.08
2023-02-02T01:54:22.956Z,69.46
2023-02-02T01:57:16.854Z,69.59
2023-02-02T02:00:09.564Z,69.84
2023-02-02T02:03:08.384Z,70.32
2023-02-02T02:06:03.208Z,70.54
2023-02-02T02:08:54.930Z,70.85
2023-02-02T02:11:43.974Z,71.02
2023-02-02T02:14:48.557Z,71.10
2023-02-02T02:17:50.724Z,71.40
2023-02-02T02:21:39.330Z,71.56
2023-02-02T02:25:13.082Z,71.76
2023-02-02T02:28:27.521Z,72.03
2023-02-02T02:31:51.230Z,72.34
2023-02-02T02:34:54.210Z,72.45
2023-02-02T02:37:51.700Z,72.62
2023-02-02T02:40:43.874Z,72.85
2023-02-02T02:43:36.793Z,73.10
2023-02-02T02:46:26.516Z,73.15
2023-02-02T02:49:17.481Z,73.24
2023-02-02T02:52:08.110Z,73.65
2023-02-02T02:55:01.171Z,73.70
2023-02-02T02:58:02.289Z,73.69
2023-02-02T03:01:01.741Z,73.78
2023-02-02T03:04:02.763Z,73.79
2023-02-02T03:06:56.183Z,74.04
2023-02-02T03:09:49.065Z,74.03
2023-02-02T03:12:45.449Z,74.15
2023-02-02T03:15:35.636Z,74.40
2023-02-02T03:18:47.107Z,74.26
2023-02-02T03:21:36.416Z,74.65
2023-02-02T03:24:25.414Z,74.63
2023-02-02T03:27:15.755Z,74.77
2023-02-02T03:30:05.151Z,74.85
2023-02-02T03:32:55.591Z,75.05
2023-02-02T03:35:44.752Z,75.33
2023-02-02T03:38:33.826Z,75.18
2023-02-02T03:41:22.458Z,75.41
2023-02-02T03:44:14.117Z,75.50
2023-02-02T03:47:02.768Z,75.70
2023-02-02T03:49:52.039Z,75.72
2023-02-02T03:52:41.257Z,75.83
2023-02-02T03:55:29.992Z,75.91
2023-02-02T03:58:22.516Z,76.03
2023-02-02T04:01:14.737Z,76.13
2023-02-02T04:04:04.585Z,76.28
2023-02-02T04:06:53.337Z,76.23
2023-02-02T04:09:42.505Z,76.19
2023-02-02T04:12:31.429Z,76.29
2023-02-02T04:15:20.042Z,76.35
2023-02-02T04:18:11.000Z,76.55
2023-02-02T04:21:00.358Z,76.55
2023-02-02T04:23:50.275Z,76.53
2023-02-02T04:26:39.155Z,76.62
2023-02-02T04:29:28.603Z,76.73
2023-02-02T04:32:18.197Z,76.83
2023-02-02T04:35:10.283Z,76.68
2023-02-02T04:37:59.625Z,76.90
2023-02-02T04:40:49.248Z,77.07
2023-02-02T04:43:39.463Z,77.00
2023-02-02T04:46:28.904Z,77.11
2023-02-02T04:49:17.987Z,77.25
2023-02-02T04:52:08.734Z,77.32
2023-02-02T04:54:57.493Z,77.57
2023-02-02T04:57:46.107Z,77.56
2023-02-02T05:00:36.375Z,77.73
2023-02-02T05:03:25.089Z,77.75
2023-02-02T05:06:16.057Z,78.00
2023-02-02T05:09:06.189Z,78.14
2023-02-02T05:11:55.687Z,78.22
2023-02-02T05:14:44.306Z,78.17
2023-02-02T05:17:34.862Z,78.28
2023-02-02T05:20:23.789Z,78.47
2023-02-02T05:23:12.366Z,78.41
2023-02-02T05:26:03.072Z,78.45
2023-02-02T05:28:51.927Z,78.58
2023-02-02T05:31:41.377Z,78.81
2023-02-02T05:34:30.414Z,78.81
2023-02-02T05:37:19.040Z,78.88
2023-02-02T05:40:09.717Z,79.11
2023-02-02T05:42:59.851Z,79.20
2023-02-02T05:45:48.496Z,79.29
2023-02-02T05:48:38.036Z,79.39
2023-02-02T05:51:30.541Z,79.36
2023-02-02T05:54:20.677Z,79.40
2023-02-02T05:57:09.927Z,79.45
2023-02-02T06:00:00.363Z,79.53
2023-02-02T06:02:49.015Z,79.62
2023-02-02T06:05:38.465Z,79.63
2023-02-02T06:08:27.577Z,79.76
2023-02-02T06:11:18.732Z,79.83
2023-02-02T06:14:08.268Z,79.83
2023-02-02T06:16:58.724Z,79.96
2023-02-02T06:19:47.393Z,80.02
2023-02-02T06:22:37.918Z,79.96
2023-02-02T06:25:27.553Z,80.22
2023-02-02T06:28:16.271Z,80.16
2023-02-02T06:31:07.263Z,80.16
2023-02-02T06:33:59.612Z,80.22
2023-02-02T06:36:49.320Z,80.27
2023-02-02T06:39:37.953Z,80.48
2023-02-02T06:42:27.796Z,80.45
2023-02-02T06:45:16.412Z,80.47
2023-02-02T06:48:11.288Z,80.53
2023-02-02T06:51:01.439Z,80.63
2023-02-02T06:53:50.929Z,80.75
2023-02-02T06:56:39.852Z,80.65
2023-02-02T06:59:28.838Z,80.71
2023-02-02T07:02:17.545Z,80.67
2023-02-02T07:05:07.204Z,80.83
2023-02-02T07:07:57.821Z,80.82
2023-02-02T07:11:13.158Z,80.98
2023-02-02T07:13:56.334Z,80.99
2023-02-02T07:16:44.957Z,80.95
2023-02-02T07:19:34.203Z,80.95
2023-02-02T07:22:22.938Z,81.04
2023-02-02T07:25:13.470Z,81.08
2023-02-02T07:28:02.247Z,80.97
2023-02-02T07:30:51.333Z,81.03
2023-02-02T07:33:42.496Z,81.05
2023-02-02T07:36:31.546Z,80.99
2023-02-02T07:39:20.189Z,81.12
2023-02-02T07:42:12.871Z,81.06
2023-02-02T07:45:35.870Z,81.06
2023-02-02T07:48:12.349Z,80.90
2023-02-02T07:51:01.593Z,81.06
2023-02-02T07:53:52.387Z,81.11
2023-02-02T07:56:41.615Z,81.05
2023-02-02T07:59:32.486Z,81.02
2023-02-02T08:02:21.831Z,81.10
2023-02-02T08:05:10.997Z,81.11
2023-02-02T08:08:00.381Z,81.18
2023-02-02T08:10:50.038Z,81.18
2023-02-02T08:13:38.922Z,81.21
2023-02-02T08:16:30.221Z,81.12
2023-02-02T08:19:19.355Z,81.21
2023-02-02T08:22:08.059Z,81.14
2023-02-02T08:24:56.707Z,81.01
2023-02-02T08:27:45.336Z,81.03
2023-02-02T08:30:35.854Z,80.92
2023-02-02T08:33:26.317Z,80.92
2023-02-02T08:36:17.417Z,80.78
2023-02-02T08:39:08.183Z,80.75
2023-02-02T08:41:57.209Z,80.64
2023-02-02T08:46:01.993Z,80.58
2023-02-02T08:48:09.527Z,80.63
2023-02-02T08:51:01.526Z,80.58
2023-02-02T08:53:50.193Z,80.43
2023-02-02T08:56:38.981Z,80.51
2023-02-02T08:59:27.995Z,80.52
2023-02-02T09:02:16.875Z,80.39
2023-02-02T09:05:07.763Z,80.22
2023-02-02T09:07:57.993Z,80.19
2023-02-02T09:10:47.117Z,79.74
2023-02-02T09:13:35.814Z,79.51
2023-02-02T09:16:26.597Z,79.47
2023-02-02T09:19:15.702Z,79.28
2023-02-02T09:22:04.324Z,79.07
2023-02-02T09:24:54.359Z,78.85
2023-02-02T09:27:43.404Z,78.77
2023-02-02T09:30:32.125Z,78.55
2023-02-02T09:33:21.173Z,78.57
2023-02-02T09:36:12.002Z,78.32
2023-02-02T09:39:01.416Z,78.16
2023-02-02T09:42:13.423Z,78.01
2023-02-02T09:45:08.680Z,78.19
2023-02-02T09:48:06.487Z,77.92
2023-02-02T09:50:59.216Z,77.99
2023-02-02T09:53:55.643Z,77.92
2023-02-02T09:56:50.810Z,77.96
2023-02-02T09:59:42.854Z,78.17
2023-02-02T10:02:39.317Z,78.73
2023-02-02T10:05:30.793Z,78.77
2023-02-02T10:08:34.828Z,78.70
2023-02-02T10:11:36.771Z,78.94
2023-02-02T10:14:31.185Z,79.05
2023-02-02T10:17:42.436Z,79.12
2023-02-02T10:20:45.136Z,79.26
2023-02-02T10:23:36.822Z,79.35
2023-02-02T10:26:32.057Z,79.42
2023-02-02T10:29:47.984Z,79.56
2023-02-02T10:32:48.843Z,79.66
2023-02-02T10:35:43.332Z,79.78
2023-02-02T10:38:41.002Z,79.93
2023-02-02T10:41:36.922Z,79.87
2023-02-02T10:44:32.948Z,79.95
2023-02-02T10:47:28.840Z,80.21
2023-02-02T10:50:21.637Z,80.21
2023-02-02T10:53:15.060Z,80.28
2023-02-02T10:56:06.965Z,80.38
2023-02-02T10:59:03.622Z,80.42
2023-02-02T11:01:52.401Z,80.55
2023-02-02T11:04:58.921Z,80.64
2023-02-02T11:07:50.109Z,80.71
2023-02-02T11:10:39.172Z,80.95
2023-02-02T11:13:31.796Z,80.84
2023-02-02T11:16:38.779Z,80.87
2023-02-02T11:19:33.807Z,80.94
2023-02-02T11:22:29.979Z,81.19
2023-02-02T11:25:32.243Z,81.30
2023-02-02T11:28:25.424Z,81.28
2023-02-02T11:31:14.065Z,81.38
2023-02-02T11:34:15.742Z,81.42
2023-02-02T11:37:14.086Z,81.39
2023-02-02T11:40:28.576Z,81.49
2023-02-02T11:43:21.797Z,81.63
2023-02-02T11:46:21.044Z,81.64
2023-02-02T11:49:18.924Z,81.60
2023-02-02T11:52:16.101Z,81.68
2023-02-02T11:55:17.445Z,81.72
2023-02-02T11:58:25.238Z,81.65
2023-02-02T12:01:28.110Z,81.47
2023-02-02T12:04:26.216Z,81.59
2023-02-02T12:07:26.683Z,81.63
2023-02-02T12:10:20.663Z,81.69
2023-02-02T12:13:16.605Z,81.71
2023-02-02T12:16:19.364Z,81.52
2023-02-02T12:19:34.969Z,81.70
2023-02-02T12:22:50.316Z,81.70
2023-02-02T12:25:56.300Z,81.65
2023-02-02T12:28:59.508Z,81.66
2023-02-02T12:32:05.846Z,81.67
2023-02-02T12:35:05.626Z,81.93
2023-02-02T12:38:04.986Z,81.74
2023-02-02T12:41:18.571Z,81.78
2023-02-02T12:44:18.112Z,81.71
2023-02-02T12:47:19.699Z,81.83
2023-02-02T12:50:26.132Z,81.90
2023-02-02T12:53:28.623Z,81.95
2023-02-02T12:56:27.213Z,82.03
2023-02-02T12:59:34.968Z,81.97
2023-02-02T13:02:34.595Z,82.02
2023-02-02T13:05:41.115Z,81.95
2023-02-02T13:08:37.592Z,82.17
2023-02-02T13:11:38.720Z,82.06
2023-02-02T13:14:32.757Z,82.11
2023-02-02T13:17:27.064Z,82.11
2023-02-02T13:20:23.944Z,82.12
2023-02-02T13:23:21.139Z,82.23
2023-02-02T13:26:16.557Z,82.15
2023-02-02T13:29:12.720Z,82.20
2023-02-02T13:32:05.752Z,82.04
2023-02-02T13:35:00.883Z,82.24
2023-02-02T13:37:55.067Z,82.35
2023-02-02T13:40:45.376Z,82.35
2023-02-02T13:43:41.617Z,82.34
2023-02-02T13:46:36.127Z,82.35
2023-02-02T13:49:29.610Z,82.52
2023-02-02T13:52:49.381Z,82.42
2023-02-02T13:55:55.042Z,82.50
2023-02-02T13:59:02.178Z,82.47
2023-02-02T14:01:52.318Z,82.50
2023-02-02T14:04:41.307Z,82.52
2023-02-02T14:07:41.732Z,82.56
2023-02-02T14:10:35.231Z,82.52
2023-02-02T14:13:45.104Z,82.53
2023-02-02T14:16:49.360Z,82.53
2023-02-02T14:19:56.159Z,82.50
2023-02-02T14:22:51.356Z,82.40
2023-02-02T14:26:05.317Z,82.49
2023-02-02T14:28:54.358Z,82.51
2023-02-02T14:31:53.387Z,82.41
2023-02-02T14:34:43.381Z,82.50
2023-02-02T14:37:44.449Z,82.30
2023-02-02T14:40:48.408Z,82.37
2023-02-02T14:43:46.524Z,82.31
2023-02-02T14:46:38.717Z,82.40
2023-02-02T14:49:36.020Z,82.38
2023-02-02T14:52:26.038Z,82.41
2023-02-02T14:55:19.897Z,82.31
2023-02-02T14:58:10.668Z,82.24
2023-02-02T15:01:08.493Z,82.24
2023-02-02T15:03:58.969Z,82.22
2023-02-02T15:06:48.857Z,82.31
2023-02-02T15:09:39.510Z,82.36
2023-02-02T15:12:34.819Z,82.41
2023-02-02T15:15:30.156Z,82.54
2023-02-02T15:18:26.412Z,82.27
2023-02-02T15:21:18.073Z,82.37
2023-02-02T15:27:21.025Z,82.54
2023-02-02T15:57:54.398Z,82.81
2023-02-02T16:22:46.892Z,83.23
2023-02-02T16:43:57.251Z,83.82
2023-02-02T17:08:39.877Z,84.24
2023-02-02T17:11:26.618Z,84.33
2023-02-02T17:14:57.056Z,84.30
2023-02-02T17:17:50.747Z,84.42
2023-02-02T17:20:20.937Z,84.38
2023-02-02T17:22:53.755Z,84.43
2023-02-02T17:25:28.838Z,84.39
2023-02-02T17:27:59.285Z,84.28
2023-02-02T17:30:30.347Z,84.17
2023-02-02T17:32:59.024Z,84.04
2023-02-02T17:35:39.919Z,83.96
2023-02-02T17:38:18.309Z,82.98
2023-02-02T17:40:48.166Z,82.49
2023-02-02T17:43:30.070Z,82.31
2023-02-02T17:46:05.891Z,82.42
2023-02-02T17:48:38.956Z,82.11
2023-02-02T17:51:13.431Z,81.89
2023-02-02T17:53:44.595Z,81.69
2023-02-02T17:56:13.238Z,81.57
2023-02-02T17:58:43.504Z,81.35
2023-02-02T18:01:18.760Z,80.97
2023-02-02T18:03:48.337Z,80.64
2023-02-02T18:06:21.275Z,80.38
2023-02-02T18:08:54.787Z,80.16
2023-02-02T18:11:23.702Z,80.20
2023-02-02T18:13:52.736Z,80.03
2023-02-02T18:16:29.775Z,79.94
2023-02-02T18:18:59.921Z,79.70
2023-02-02T18:21:29.714Z,79.76
2023-02-02T18:24:02.463Z,79.70
2023-02-02T18:26:53.155Z,79.63
2023-02-02T18:29:28.987Z,79.39
2023-02-02T18:32:00.110Z,79.32
2023-02-02T18:34:45.614Z,79.26
2023-02-02T18:37:20.807Z,79.01
2023-02-02T18:39:52.363Z,79.05
2023-02-02T18:42:38.253Z,78.95
2023-02-02T18:45:09.806Z,78.86
2023-02-02T18:47:44.190Z,78.93
2023-02-02T18:50:16.064Z,78.99
2023-02-02T18:52:45.813Z,78.80
2023-02-02T18:55:18.498Z,78.79
2023-02-02T18:57:58.453Z,78.85
2023-02-02T19:00:30.927Z,78.75
2023-02-02T19:03:00.750Z,78.84
2023-02-02T19:05:48.970Z,78.80
2023-02-02T19:08:19.996Z,78.82
2023-02-02T19:10:57.559Z,78.72
2023-02-02T19:13:26.375Z,78.78
2023-02-02T19:15:57.377Z,78.66
2023-02-02T19:18:29.349Z,78.66
2023-02-02T19:23:49.189Z,78.39
2023-02-02T19:26:28.750Z,78.63
2023-02-02T19:29:18.035Z,78.63
2023-02-02T19:31:48.749Z,78.69
2023-02-02T19:34:24.144Z,78.86
2023-02-02T19:36:58.676Z,79.19
2023-02-02T19:39:40.837Z,79.27
2023-02-02T19:42:13.239Z,79.38
2023-02-02T19:44:44.594Z,79.56
2023-02-02T19:47:25.719Z,79.61
2023-02-02T19:49:58.340Z,79.80
2023-02-02T19:52:27.982Z,79.74
2023-02-02T19:54:57.349Z,80.00
2023-02-02T19:57:37.166Z,80.01
2023-02-02T20:00:20.054Z,80.41
2023-02-02T20:03:17.382Z,80.36
2023-02-02T20:05:49.645Z,80.72
2023-02-02T20:08:24.646Z,81.03
2023-02-02T20:10:55.030Z,81.20
2023-02-02T20:13:27.314Z,81.34
2023-02-02T20:16:42.620Z,81.39
2023-02-02T20:19:18.543Z,81.56
2023-02-02T20:22:08.603Z,81.58
2023-02-02T20:24:40.741Z,81.81
2023-02-02T20:27:17.494Z,81.88
2023-02-02T20:30:01.479Z,81.93
2023-02-02T20:32:40.465Z,82.32
2023-02-02T20:35:25.600Z,82.02
2023-02-02T20:38:08.703Z,82.16
2023-02-02T20:40:59.326Z,82.20
2023-02-02T20:43:33.751Z,82.32
2023-02-02T20:46:11.443Z,82.38
2023-02-02T20:48:42.014Z,82.25
2023-02-02T20:51:12.053Z,82.54
2023-02-02T20:53:41.167Z,82.44
2023-02-02T20:56:10.727Z,82.58
2023-02-02T20:58:46.901Z,82.50
2023-02-02T21:01:26.255Z,82.58
2023-02-02T21:04:01.321Z,82.66
2023-02-02T21:06:34.308Z,82.90
2023-02-02T21:09:12.325Z,82.91
2023-02-02T21:11:42.106Z,82.92
2023-02-02T21:18:40.356Z,83.05
2023-02-02T21:21:11.996Z,83.09
2023-02-02T21:26:31.029Z,83.12
2023-02-02T21:29:03.709Z,83.07
2023-02-02T21:35:22.468Z,83.12
2023-02-02T21:37:58.790Z,83.18
2023-02-02T21:43:20.628Z,82.90
2023-02-02T21:50:45.768Z,82.96
2023-02-02T21:57:06.332Z,83.13
2023-02-02T21:59:37.851Z,83.09
2023-02-02T22:02:34.418Z,83.00
2023-02-02T22:05:18.987Z,82.87
2023-02-02T22:07:53.990Z,82.85
2023-02-02T22:10:48.923Z,82.92
